PAMD METAR and TAF weather

Enter ICAO airport designator
Station Type Date Time Source
PAMD METAR 2020/04/06 17:51 UTC NOAA

PAMD 061751Z AUTO 28023G36KT 10SM BKN049 00/M08 A2968 RMK AO2 PK WND 28044/1723 UPB13E25 SLP037 P0000 60000 T00001083 10006 21006 53010 FZRANO


Station Type Date Time Source
PAMD Decoded METAR 2020/04/06 17:51 UTC NOAA

Middleton Island, Middleton Island Airport, AK, United States (PAMD) 59-26N 146-18W 14M
Apr 06, 2020 - 01:51 PM EDT / 2020.04.06 1751 UTC
Wind: from the W (280 degrees) at 26 MPH (23 KT) gusting to 41 MPH (36 KT):0
Visibility: 10 mile(s):0
Sky conditions: mostly cloudy
Precipitation last hour: A trace
Temperature: 32.0 F (0.0 C)
Windchill: 17 F (-8 C):1
Dew Point: 17.1 F (-8.3 C)
Relative Humidity: 53%
Pressure (altimeter): 29.68 in. Hg (1005 hPa)
Pressure tendency: 0.03 inches (1.0 hPa) higher than three hours ago
ob: PAMD 061751Z AUTO 28023G36KT 10SM BKN049 00/M08 A2968 RMK AO2 PK WND 28044/1723 UPB13E25 SLP037 P0000 60000 T00001083 10006 21006 53010 FZRANO
cycle: 18

Station Type Date Time Source
PAMD TAF UTC NOAA

Error!

Example: see airport list